Pagrindinis puslapis
METAR-TAF:

METAR-TAF

Oro uostai :

Mehongsonas, Tailandas

platuma: 19-18N, ilguma: 097-50E, Aukštis: 267 m

Dabartinis oras

Ataskaita buvo paskelbta 20 minutes, ne 00:00 UTC
Ramus vėjas
Temperatūra 17°C
Drėgmė 100%
Slėgis 1015 hPa
Matomumas: 1200 m
Mažai debesys ne aukštis 1200 ft
rūkana

METAR: VTCH 030000Z 00000KT 1200 BR FEW012 17/17 Q1015 BECMG FM0100 1500 BR

Laikas: 07:20 (00:20 UTC)

Prognozė

Ataskaita buvo paskelbta 1 valandą ir 20 minutes, ne 23:00 UTC
Prognozė galioja nuo 03 metu 00 UTC su 03 metu 24 UTC
Vėjas kt iš Šiaurės
Matomumas: 0800 m
Mažai debesys ne aukštis 2500 ft
rūkas
Tapsmas
nuo 03 metu 01 UTC su 03 metu 03 UTC
Vėjas 5 kt iš Vakarų/Šiaurės Vakarų
Matomumas 10 km arba daugiau

TAF: VTCH 022300Z 0300/0324 00000KT 0800 FG FEW025 BECMG 0301/0303 30005KT 9999 NSW

Orai ataskaitas ir orų prognozės (METAR, TAF).

turimą stotys yra geltonos ir raudonos taškus žemėlapyje.

Perkelti pele per norėdami pamatyti stoties vardą.

Tada spustelėkite, norėdami matyti oro stebėjimo ir prognozės.

Norėdami pakeisti žemėlapį: spustelėkite ant žalios mygtukų su juodo kryžiaus žemyn,; žalią mygtuką su brūkšneliu, jei norite nutolinti; arba žalių rodyklių gretimoms žemėlapius.


METAR-TAF: